createdAt,value
2023-05-12T00:00:27.873Z,18.33
2023-05-12T00:03:30.273Z,17.25
2023-05-12T00:06:32.521Z,16.10
2023-05-12T00:09:34.753Z,14.25
2023-05-12T00:12:37.256Z,15.02
2023-05-12T00:15:39.456Z,17.55
2023-05-12T00:18:41.571Z,17.67
2023-05-12T00:21:43.849Z,17.45
2023-05-12T00:24:45.940Z,18.77
2023-05-12T00:27:47.984Z,17.27
2023-05-12T00:30:50.039Z,15.38
2023-05-12T00:33:52.067Z,16.40
2023-05-12T00:36:54.143Z,17.88
2023-05-12T00:39:56.232Z,18.90
2023-05-12T00:42:58.307Z,18.27
2023-05-12T00:46:02.450Z,17.00
2023-05-12T00:49:04.787Z,18.00
2023-05-12T00:52:06.888Z,19.33
2023-05-12T00:55:09.426Z,20.13
2023-05-12T00:58:11.471Z,19.58
2023-05-12T01:01:13.878Z,16.40
2023-05-12T01:04:16.188Z,18.55
2023-05-12T01:07:26.367Z,19.90
2023-05-12T01:10:28.493Z,23.60
2023-05-12T01:13:30.594Z,20.35
2023-05-12T01:16:39.499Z,19.67
2023-05-12T01:19:41.522Z,21.20
2023-05-12T01:22:43.721Z,22.73
2023-05-12T01:25:49.228Z,22.58
2023-05-12T01:28:52.092Z,24.13
2023-05-12T01:31:54.832Z,17.55
2023-05-12T01:34:56.963Z,20.40
2023-05-12T01:37:59.043Z,19.20
2023-05-12T01:41:01.195Z,23.67
2023-05-12T01:44:03.253Z,21.15
2023-05-12T01:47:05.685Z,20.83
2023-05-12T01:50:08.162Z,23.05
2023-05-12T01:53:13.049Z,22.45
2023-05-12T01:56:15.203Z,23.17
2023-05-12T01:59:17.258Z,26.17
2023-05-12T02:02:19.272Z,25.08
2023-05-12T02:05:21.387Z,21.95
2023-05-12T02:08:23.493Z,25.08
2023-05-12T02:11:26.131Z,22.10
2023-05-12T02:14:28.242Z,24.08
2023-05-12T02:17:30.341Z,21.63
2023-05-12T02:20:32.365Z,22.20
2023-05-12T02:23:34.413Z,26.70
2023-05-12T02:26:36.455Z,20.42
2023-05-12T02:29:38.766Z,23.17
2023-05-12T02:32:41.238Z,23.08
2023-05-12T02:35:44.702Z,25.08
2023-05-12T02:38:46.765Z,25.08
2023-05-12T02:41:48.801Z,25.27
2023-05-12T02:44:50.852Z,22.45
2023-05-12T02:47:52.916Z,22.00
2023-05-12T02:50:55.044Z,23.40
2023-05-12T02:53:57.118Z,27.02
2023-05-12T02:56:59.876Z,19.92
2023-05-12T03:00:04.925Z,23.90
2023-05-12T03:03:07.115Z,17.45
2023-05-12T03:06:09.599Z,17.67
2023-05-12T03:09:11.655Z,19.45
2023-05-12T03:12:13.652Z,15.98
2023-05-12T03:15:15.633Z,16.55
2023-05-12T03:18:17.661Z,18.75
2023-05-12T03:21:19.713Z,15.82
2023-05-12T03:24:21.806Z,16.90
2023-05-12T03:27:23.855Z,16.35
2023-05-12T03:30:26.027Z,16.00
2023-05-12T03:33:28.078Z,16.33
2023-05-12T03:36:30.142Z,18.67
2023-05-12T03:39:32.201Z,17.15
2023-05-12T03:42:34.253Z,18.77
2023-05-12T03:45:36.350Z,17.17
2023-05-12T03:48:38.450Z,17.23
2023-05-12T03:51:40.525Z,16.95
2023-05-12T03:54:42.525Z,17.33
2023-05-12T03:57:44.576Z,16.85
2023-05-12T04:00:46.846Z,18.88
2023-05-12T04:03:49.048Z,15.77
2023-05-12T04:06:51.256Z,16.40
2023-05-12T04:09:53.305Z,16.02
2023-05-12T04:12:55.372Z,15.75
2023-05-12T04:15:59.305Z,17.42
2023-05-12T04:19:02.748Z,13.30
2023-05-12T04:22:05.059Z,11.68
2023-05-12T04:25:07.568Z,12.93
2023-05-12T04:28:12.043Z,13.15
2023-05-12T04:31:14.408Z,16.40
2023-05-12T04:34:16.450Z,17.13
2023-05-12T04:37:18.453Z,16.27
2023-05-12T04:40:20.840Z,19.95
2023-05-12T04:46:28.141Z,14.60
2023-05-12T04:49:30.172Z,14.23
2023-05-12T04:52:32.737Z,16.67
2023-05-12T04:55:35.131Z,16.13
2023-05-12T04:58:37.214Z,14.35
2023-05-12T05:01:39.363Z,17.70
2023-05-12T05:04:41.503Z,11.40
2023-05-12T05:07:43.584Z,13.85
2023-05-12T05:10:45.738Z,17.83
2023-05-12T05:13:47.788Z,12.15
2023-05-12T05:16:49.929Z,13.57
2023-05-12T05:19:58.524Z,12.15
2023-05-12T05:23:01.375Z,12.68
2023-05-12T05:26:03.821Z,10.93
2023-05-12T05:29:06.364Z,10.90
2023-05-12T05:32:08.488Z,10.80
2023-05-12T05:35:10.580Z,11.63
2023-05-12T05:38:13.159Z,10.43
2023-05-12T05:41:15.167Z,9.90
2023-05-12T05:44:17.235Z,10.63
2023-05-12T05:47:19.334Z,9.52
2023-05-12T05:50:21.329Z,11.82
2023-05-12T05:53:23.426Z,14.18
2023-05-12T05:56:25.428Z,13.52
2023-05-12T05:59:27.534Z,14.18
2023-05-12T06:02:29.715Z,11.65
2023-05-12T06:05:31.825Z,11.52
2023-05-12T06:08:33.859Z,10.65
2023-05-12T06:11:35.901Z,8.55
2023-05-12T06:14:37.930Z,7.95
2023-05-12T06:17:40.012Z,8.13
2023-05-12T06:20:42.339Z,7.90
2023-05-12T06:23:44.502Z,8.02
2023-05-12T06:26:46.664Z,7.15
2023-05-12T06:29:49.148Z,7.22
2023-05-12T06:32:51.281Z,7.50
2023-05-12T06:35:53.434Z,7.82
2023-05-12T06:38:55.808Z,8.95
2023-05-12T06:41:57.885Z,5.60
2023-05-12T06:45:00.793Z,6.60
2023-05-12T06:48:05.554Z,5.70
2023-05-12T06:51:08.621Z,6.20
2023-05-12T06:54:10.677Z,5.80
2023-05-12T06:57:12.728Z,6.00
2023-05-12T07:00:15.220Z,5.55
2023-05-12T07:03:17.609Z,5.25
2023-05-12T07:06:19.748Z,10.88
2023-05-12T07:09:21.814Z,6.47
2023-05-12T07:12:23.953Z,7.13
2023-05-12T07:15:25.936Z,7.05
2023-05-12T07:18:27.985Z,12.65
2023-05-12T07:21:30.768Z,7.63
2023-05-12T07:24:32.854Z,8.63
2023-05-12T07:27:35.192Z,8.40
2023-05-12T07:30:37.737Z,12.32
2023-05-12T07:33:39.812Z,10.90
2023-05-12T07:36:41.850Z,9.00
2023-05-12T07:39:43.914Z,9.75
2023-05-12T07:42:46.107Z,13.65
2023-05-12T07:45:48.118Z,13.65
2023-05-12T07:48:50.787Z,11.43
2023-05-12T07:51:52.833Z,13.90
2023-05-12T07:54:58.006Z,13.45
2023-05-12T07:58:00.592Z,14.68
2023-05-12T08:01:06.071Z,15.95
2023-05-12T08:04:08.176Z,16.65
2023-05-12T08:07:10.408Z,22.50
2023-05-12T08:10:13.253Z,23.40
2023-05-12T08:13:15.323Z,22.15
2023-05-12T08:16:17.574Z,22.42
2023-05-12T08:19:19.803Z,20.02
2023-05-12T08:22:21.866Z,22.42
2023-05-12T08:25:23.943Z,22.75
2023-05-12T08:28:26.052Z,25.83
2023-05-12T08:31:28.401Z,26.73
2023-05-12T08:34:30.669Z,24.02
2023-05-12T08:37:34.715Z,25.50
2023-05-12T08:41:11.113Z,25.63
2023-05-12T08:44:14.163Z,24.83
2023-05-12T08:47:18.770Z,28.52
2023-05-12T08:50:23.017Z,32.47
2023-05-12T08:53:27.866Z,32.63
2023-05-12T08:59:37.935Z,29.85
2023-05-12T09:02:52.265Z,28.70
2023-05-12T09:05:58.646Z,24.55
2023-05-12T09:09:01.080Z,30.35
2023-05-12T09:12:06.629Z,26.65
2023-05-12T09:15:14.930Z,29.48
2023-05-12T09:18:16.935Z,32.17
2023-05-12T09:21:20.004Z,28.23
2023-05-12T09:24:37.393Z,29.67
2023-05-12T09:27:39.623Z,29.77
2023-05-12T09:30:42.637Z,31.98
2023-05-12T09:33:45.132Z,29.27
2023-05-12T09:36:59.163Z,29.17
2023-05-12T09:40:02.981Z,29.23
2023-05-12T09:43:08.711Z,29.48
2023-05-12T09:46:10.857Z,30.23
2023-05-12T09:49:13.099Z,32.13
2023-05-12T09:52:16.159Z,33.00
2023-05-12T09:55:18.310Z,34.15
2023-05-12T09:58:22.015Z,31.08
2023-05-12T10:01:25.357Z,29.77
2023-05-12T10:04:40.162Z,29.80
2023-05-12T10:07:48.478Z,32.05
2023-05-12T10:10:52.367Z,36.30
2023-05-12T10:13:54.634Z,33.15
2023-05-12T10:16:57.707Z,33.80
2023-05-12T10:20:00.637Z,33.75
2023-05-12T10:23:04.124Z,35.65
2023-05-12T10:26:07.450Z,30.10
2023-05-12T10:29:10.928Z,30.63
2023-05-12T10:32:12.970Z,28.73
2023-05-12T10:35:15.438Z,33.80
2023-05-12T10:38:19.782Z,33.83
2023-05-12T10:41:35.386Z,35.25
2023-05-12T10:44:52.031Z,32.78
2023-05-12T10:48:06.957Z,38.28
2023-05-12T10:51:10.530Z,36.78
2023-05-12T10:54:20.001Z,39.55
2023-05-12T10:57:23.290Z,38.55
2023-05-12T11:00:27.322Z,35.85
2023-05-12T11:03:30.474Z,36.65
2023-05-12T11:06:33.068Z,34.88
2023-05-12T11:09:56.861Z,36.75
2023-05-12T11:13:01.984Z,36.45
2023-05-12T11:16:04.412Z,38.45
2023-05-12T11:19:06.780Z,38.05
2023-05-12T11:22:11.336Z,36.17
2023-05-12T11:25:14.123Z,39.53
2023-05-12T11:28:16.326Z,41.78
2023-05-12T11:31:22.821Z,41.28
2023-05-12T11:34:27.195Z,45.42
2023-05-12T11:37:29.230Z,48.47
2023-05-12T11:40:31.413Z,49.45
2023-05-12T11:43:33.372Z,53.25
2023-05-12T11:46:35.355Z,52.15
2023-05-12T11:49:57.130Z,53.85
2023-05-12T11:52:59.318Z,45.75
2023-05-12T11:56:01.426Z,50.80
2023-05-12T11:59:03.662Z,54.97
2023-05-12T12:02:05.817Z,52.90
2023-05-12T12:05:18.508Z,48.10
2023-05-12T12:08:21.014Z,50.35
2023-05-12T12:11:26.847Z,49.50
2023-05-12T12:14:30.058Z,46.30
2023-05-12T12:17:32.277Z,45.63
2023-05-12T12:20:34.360Z,49.90
2023-05-12T12:23:47.631Z,44.33
2023-05-12T12:26:52.302Z,44.42
2023-05-12T12:29:54.422Z,38.17
2023-05-12T12:32:56.498Z,37.25
2023-05-12T12:35:58.632Z,40.30
2023-05-12T12:39:00.714Z,41.90
2023-05-12T12:42:03.199Z,36.58
2023-05-12T12:45:06.332Z,33.55
2023-05-12T12:48:09.258Z,41.47
2023-05-12T12:51:11.756Z,38.55
2023-05-12T12:54:14.830Z,36.25
2023-05-12T12:57:17.427Z,40.13
2023-05-12T13:00:20.017Z,37.72
2023-05-12T13:03:23.161Z,35.58
2023-05-12T13:06:25.236Z,36.90
2023-05-12T13:09:27.933Z,36.97
2023-05-12T13:12:31.399Z,44.38
2023-05-12T13:15:33.381Z,39.38
2023-05-12T13:18:35.478Z,36.33
2023-05-12T13:21:37.933Z,35.38
2023-05-12T13:24:40.032Z,39.83
2023-05-12T13:27:42.142Z,37.35
2023-05-12T13:30:44.397Z,36.75
2023-05-12T13:33:46.448Z,38.33
2023-05-12T13:36:48.584Z,35.33
2023-05-12T13:39:50.699Z,39.53
2023-05-12T13:42:52.690Z,38.20
2023-05-12T13:45:54.777Z,39.95
2023-05-12T13:48:56.901Z,36.60
2023-05-12T13:51:58.892Z,38.92
2023-05-12T13:55:00.967Z,37.85
2023-05-12T13:58:03.011Z,36.58
2023-05-12T14:01:07.261Z,35.17
2023-05-12T14:04:11.815Z,37.17
2023-05-12T14:07:13.845Z,34.63
2023-05-12T14:10:16.093Z,36.83
2023-05-12T14:13:18.214Z,33.85
2023-05-12T14:16:20.652Z,31.52
2023-05-12T14:19:22.684Z,33.92
2023-05-12T14:22:26.559Z,32.40
2023-05-12T14:25:30.807Z,30.48
2023-05-12T14:28:32.934Z,36.58
2023-05-12T14:31:35.129Z,30.55
2023-05-12T14:34:37.124Z,33.28
2023-05-12T14:37:39.246Z,31.35
2023-05-12T14:40:42.436Z,30.50
2023-05-12T14:43:44.635Z,31.23
2023-05-12T14:46:46.703Z,32.33
2023-05-12T14:49:49.119Z,31.88
2023-05-12T14:52:51.149Z,31.88
2023-05-12T14:55:53.277Z,31.67
2023-05-12T14:58:55.363Z,35.88
2023-05-12T15:01:57.536Z,29.35
2023-05-12T15:04:59.582Z,30.52
2023-05-12T15:08:01.637Z,27.85
2023-05-12T15:11:03.937Z,33.58
2023-05-12T15:14:05.909Z,27.20
2023-05-12T15:17:07.971Z,29.30
2023-05-12T15:20:10.523Z,31.55
2023-05-12T15:23:12.566Z,32.75
2023-05-12T15:26:31.354Z,29.98
2023-05-12T15:32:41.241Z,36.30
2023-05-12T15:35:43.334Z,40.50
2023-05-12T15:38:47.269Z,32.72
2023-05-12T15:41:50.443Z,33.25
2023-05-12T15:44:52.802Z,29.98
2023-05-12T15:47:55.043Z,27.60
2023-05-12T15:50:57.075Z,30.05
2023-05-12T15:53:59.268Z,28.95
2023-05-12T15:57:01.731Z,31.33
2023-05-12T16:00:05.468Z,31.40
2023-05-12T16:03:09.510Z,30.70
2023-05-12T16:06:11.555Z,32.50
2023-05-12T16:09:13.766Z,30.55
2023-05-12T16:12:16.002Z,27.02
2023-05-12T16:15:18.206Z,27.60
2023-05-12T16:18:20.355Z,27.65
2023-05-12T16:21:22.463Z,27.08
2023-05-12T16:24:28.251Z,26.70
2023-05-12T16:27:32.053Z,28.20
2023-05-12T16:30:34.078Z,27.98
2023-05-12T16:33:36.328Z,26.70
2023-05-12T16:36:38.357Z,29.88
2023-05-12T16:39:40.356Z,29.63
2023-05-12T16:42:42.786Z,35.47
2023-05-12T16:45:45.045Z,33.10
2023-05-12T16:48:47.073Z,33.35
2023-05-12T16:51:50.259Z,39.50
2023-05-12T16:54:53.164Z,13.23
2023-05-12T16:57:55.445Z,13.15
2023-05-12T17:00:58.806Z,12.70
2023-05-12T17:04:01.468Z,11.88
2023-05-12T17:07:03.595Z,11.70
2023-05-12T17:10:06.752Z,10.73
2023-05-12T17:13:09.503Z,11.70
2023-05-12T17:16:11.660Z,14.90
2023-05-12T17:19:14.390Z,11.43
2023-05-12T17:22:17.256Z,9.93
2023-05-12T17:25:19.858Z,9.77
2023-05-12T17:28:22.382Z,9.68
2023-05-12T17:31:24.451Z,15.43
2023-05-12T17:34:26.689Z,14.52
2023-05-12T17:37:30.401Z,15.68
2023-05-12T17:40:32.568Z,15.88
2023-05-12T17:43:34.626Z,19.90
2023-05-12T17:46:36.694Z,15.50
2023-05-12T17:49:41.881Z,14.00
2023-05-12T17:52:44.010Z,13.95
2023-05-12T17:55:46.138Z,15.95
2023-05-12T17:58:48.220Z,21.67
2023-05-12T18:01:50.389Z,17.65
2023-05-12T18:04:52.517Z,21.95
2023-05-12T18:07:54.563Z,21.98
2023-05-12T18:10:56.666Z,18.88
2023-05-12T18:14:01.881Z,19.75
2023-05-12T18:17:04.001Z,36.65
2023-05-12T18:20:06.840Z,26.17
2023-05-12T18:23:09.030Z,27.40
2023-05-12T18:26:11.145Z,27.88
2023-05-12T18:29:13.416Z,25.70
2023-05-12T18:32:15.511Z,26.45
2023-05-12T18:35:18.101Z,26.60
2023-05-12T18:38:20.735Z,20.17
2023-05-12T18:41:22.954Z,29.83
2023-05-12T18:44:25.077Z,23.80
2023-05-12T18:47:27.314Z,23.55
2023-05-12T18:50:30.229Z,23.30
2023-05-12T18:53:32.617Z,56.13
2023-05-12T18:56:34.910Z,45.50
2023-05-12T18:59:37.202Z,22.63
2023-05-12T19:02:42.186Z,23.88
2023-05-12T19:05:46.425Z,21.25
2023-05-12T19:08:48.982Z,22.98
2023-05-12T19:11:51.394Z,26.48
2023-05-12T19:14:53.479Z,22.73
2023-05-12T19:17:56.851Z,30.83
2023-05-12T19:20:59.205Z,39.22
2023-05-12T19:24:01.517Z,42.28
2023-05-12T19:27:03.707Z,42.05
2023-05-12T19:30:06.774Z,40.30
2023-05-12T19:33:09.607Z,44.42
2023-05-12T19:36:12.633Z,39.85
2023-05-12T19:39:14.818Z,35.63
2023-05-12T19:42:16.981Z,31.08
2023-05-12T19:45:19.436Z,32.22
2023-05-12T19:48:21.641Z,30.88
2023-05-12T19:51:23.685Z,30.38
2023-05-12T19:54:25.835Z,30.42
2023-05-12T19:57:29.514Z,34.78
2023-05-12T20:00:31.777Z,33.17
2023-05-12T20:03:34.183Z,34.42
2023-05-12T20:06:36.550Z,33.20
2023-05-12T20:09:38.568Z,35.08
2023-05-12T20:12:40.588Z,31.27
2023-05-12T20:15:44.121Z,29.33
2023-05-12T20:18:46.333Z,37.78
2023-05-12T20:21:48.431Z,30.88
2023-05-12T20:24:51.336Z,28.92
2023-05-12T20:27:55.543Z,29.83
2023-05-12T20:30:57.583Z,28.35
2023-05-12T20:33:59.680Z,34.15
2023-05-12T20:37:01.695Z,28.92
2023-05-12T20:40:05.366Z,30.20
2023-05-12T20:43:08.840Z,27.42
2023-05-12T20:46:11.601Z,25.88
2023-05-12T20:49:13.823Z,28.17
2023-05-12T20:52:16.094Z,27.27
2023-05-12T20:55:18.161Z,27.45
2023-05-12T20:58:20.229Z,24.35
2023-05-12T21:01:22.576Z,24.33
2023-05-12T21:04:24.812Z,27.85
2023-05-12T21:07:26.866Z,23.92
2023-05-12T21:10:31.057Z,27.20
2023-05-12T21:13:33.103Z,27.10
2023-05-12T21:16:35.145Z,26.38
2023-05-12T21:19:38.515Z,26.42
2023-05-12T21:22:40.942Z,23.23
2023-05-12T21:25:42.997Z,24.88
2023-05-12T21:28:45.103Z,25.80
2023-05-12T21:31:48.351Z,26.30
2023-05-12T21:34:50.428Z,25.00
2023-05-12T21:37:52.487Z,24.58
2023-05-12T21:40:56.411Z,27.58
2023-05-12T21:43:58.551Z,24.85
2023-05-12T21:47:00.592Z,27.83
2023-05-12T21:50:04.292Z,27.95
2023-05-12T21:53:06.571Z,25.05
2023-05-12T21:56:08.638Z,27.15
2023-05-12T21:59:10.816Z,23.92
2023-05-12T22:02:13.315Z,25.08
2023-05-12T22:05:15.410Z,27.88
2023-05-12T22:08:17.547Z,25.52
2023-05-12T22:11:19.851Z,22.30
2023-05-12T22:14:21.976Z,27.70
2023-05-12T22:17:24.065Z,30.35
2023-05-12T22:20:26.315Z,26.80
2023-05-12T22:23:28.402Z,24.35
2023-05-12T22:26:30.477Z,28.30
2023-05-12T22:29:32.527Z,28.52
2023-05-12T22:32:34.680Z,29.73
2023-05-12T22:35:36.886Z,26.38
2023-05-12T22:38:38.947Z,28.40
2023-05-12T22:41:41.724Z,28.17
2023-05-12T22:44:44.255Z,27.45
2023-05-12T22:47:46.428Z,23.58
2023-05-12T22:50:48.785Z,31.20
2023-05-12T22:53:50.917Z,28.90
2023-05-12T22:56:52.993Z,29.42
2023-05-12T22:59:55.043Z,29.70
2023-05-12T23:02:57.230Z,31.40
2023-05-12T23:05:59.266Z,27.00
2023-05-12T23:09:01.388Z,27.75
2023-05-12T23:12:04.520Z,26.85
2023-05-12T23:15:07.759Z,25.70
2023-05-12T23:18:09.827Z,31.05
2023-05-12T23:21:11.948Z,31.48
2023-05-12T23:24:14.040Z,31.40
2023-05-12T23:27:16.094Z,30.40
2023-05-12T23:30:18.138Z,25.73
2023-05-12T23:33:20.583Z,28.15
2023-05-12T23:36:22.852Z,26.10
2023-05-12T23:39:24.850Z,30.02
2023-05-12T23:42:26.920Z,28.27
2023-05-12T23:45:29.003Z,25.88
2023-05-12T23:48:31.086Z,26.08
2023-05-12T23:51:33.296Z,25.27
2023-05-12T23:54:35.392Z,27.02
2023-05-12T23:57:37.573Z,28.65
